Time;durP1;ratioP1;P1;durP2;ratioP2;P2;SDS_P1;SDS_P2;PMS_P1;PMS_P2;Temp;Humidity;BMP_temperature;BMP_pressure;BME280_temperature;BME280_humidity;BME280_pressure;Samples;Min_cycle;Max_cycle;Signal;HPM_P1;HPM_P2
2023/01/03 00:00:52;;;;;;;61.57;33.60;;;;;;;5.80;91.74;100581.66;5051790;28;20656;-68
2023/01/03 00:03:20;;;;;;;62.97;35.03;;;;;;;5.77;92.01;100577.47;5052007;28;20203;-68
2023/01/03 00:05:48;;;;;;;61.13;33.50;;;;;;;5.76;92.01;100575.81;5052895;28;20201;-68
2023/01/03 00:08:15;;;;;;;54.50;31.83;;;;;;;5.75;92.14;100579.44;5050896;28;20671;-68
2023/01/03 00:10:42;;;;;;;55.47;31.27;;;;;;;5.73;92.49;100576.09;5051486;28;20209;-68
2023/01/03 00:13:08;;;;;;;53.47;33.80;;;;;;;5.73;92.98;100573.47;5052097;28;20200;-68
2023/01/03 00:15:35;;;;;;;60.93;34.10;;;;;;;5.69;92.89;100579.97;5051968;28;20200;-68
2023/01/03 00:18:02;;;;;;;54.23;32.57;;;;;;;5.71;93.26;100580.69;5052228;28;20220;-68
2023/01/03 00:20:30;;;;;;;57.20;34.87;;;;;;;5.69;92.92;100579.97;5051963;28;20330;-68
2023/01/03 00:22:58;;;;;;;60.43;34.27;;;;;;;5.68;92.70;100586.22;5051733;28;20285;-69
2023/01/03 00:25:26;;;;;;;60.33;34.40;;;;;;;5.69;92.51;100577.34;5051138;28;20193;-68
2023/01/03 00:27:52;;;;;;;60.73;34.73;;;;;;;5.63;92.09;100580.56;5051760;28;20201;-68
2023/01/03 00:30:19;;;;;;;55.67;34.43;;;;;;;5.59;92.52;100578.31;5052757;28;20694;-68
2023/01/03 00:32:46;;;;;;;54.97;33.83;;;;;;;5.54;92.76;100576.13;5055719;28;20258;-68
2023/01/03 00:35:13;;;;;;;61.47;35.87;;;;;;;5.52;92.55;100578.03;5055338;28;20196;-68
2023/01/03 00:37:41;;;;;;;58.30;34.37;;;;;;;5.49;93.30;100577.50;5055437;28;20640;-68
2023/01/03 00:40:08;;;;;;;62.63;36.97;;;;;;;5.47;93.36;100577.63;5055323;28;20254;-68
2023/01/03 00:43:27;;;;;;;65.20;37.03;;;;;;;5.43;92.48;100573.59;5055725;28;20246;-68
2023/01/03 00:45:22;;;;;;;59.50;37.37;;;;;;;5.41;92.53;100578.19;5054337;28;20197;-68
2023/01/03 00:47:49;;;;;;;70.60;38.90;;;;;;;5.36;93.08;100577.75;5055164;28;20258;-68
2023/01/03 00:50:16;;;;;;;62.63;38.90;;;;;;;5.33;93.25;100572.75;5054927;28;20196;-68
2023/01/03 00:52:44;;;;;;;62.37;38.63;;;;;;;5.32;92.73;100565.81;5055448;28;20617;-68
2023/01/03 00:55:11;;;;;;;67.07;37.80;;;;;;;5.22;92.66;100564.13;5055177;28;20193;-68
2023/01/03 00:57:38;;;;;;;63.93;35.60;;;;;;;5.13;92.92;100571.06;5054890;28;20220;-68
2023/01/03 01:00:05;;;;;;;62.27;36.07;;;;;;;5.10;94.27;100565.22;5054802;28;20246;-68
2023/01/03 01:02:32;;;;;;;67.57;35.20;;;;;;;5.10;94.72;100566.06;5054609;28;20542;-68
2023/01/03 01:04:58;;;;;;;63.03;35.30;;;;;;;5.12;95.03;100561.50;5055051;28;20259;-68
2023/01/03 01:07:25;;;;;;;67.97;38.00;;;;;;;5.10;94.62;100563.41;5054951;28;20571;-68
2023/01/03 01:09:53;;;;;;;65.73;36.63;;;;;;;5.13;94.66;100560.53;5054998;28;20189;-68
2023/01/03 01:12:20;;;;;;;64.53;37.33;;;;;;;5.18;93.83;100560.94;5054711;28;20192;-69
2023/01/03 01:14:46;;;;;;;63.13;36.63;;;;;;;5.19;92.91;100559.97;5055207;28;20197;-68
2023/01/03 01:17:13;;;;;;;63.77;37.57;;;;;;;5.10;93.33;100558.16;5054515;28;20220;-68
2023/01/03 01:19:42;;;;;;;69.33;37.57;;;;;;;5.02;93.31;100550.09;5054497;28;20733;-68
2023/01/03 01:22:10;;;;;;;57.57;35.20;;;;;;;4.98;92.06;100547.84;5054192;28;20262;-69
2023/01/03 01:24:36;;;;;;;59.33;33.73;;;;;;;4.96;93.55;100555.06;5054682;28;20185;-69
2023/01/03 01:27:05;;;;;;;63.60;36.30;;;;;;;4.94;92.78;100552.56;5055284;28;20195;-68
2023/01/03 01:29:31;;;;;;;54.00;33.53;;;;;;;4.93;92.46;100550.06;5054556;28;20185;-69
2023/01/03 01:31:58;;;;;;;60.70;34.43;;;;;;;4.92;92.32;100551.88;5054340;28;20258;-69
2023/01/03 01:34:25;;;;;;;59.47;34.40;;;;;;;4.88;92.10;100545.22;5054863;28;20200;-69
2023/01/03 01:36:51;;;;;;;51.60;33.17;;;;;;;4.87;91.94;100540.91;5054493;28;20188;-69
2023/01/03 01:39:22;;;;;;;56.73;33.50;;;;;;;4.84;92.56;100533.28;5053594;28;20254;-69
2023/01/03 01:45:00;;;;;;;55.20;31.17;;;;;;;4.75;92.23;100539.34;5054165;28;20648;-67
2023/01/03 01:47:38;;;;;;;50.60;30.97;;;;;;;4.66;92.73;100537.50;5039413;28;20625;-67
2023/01/03 01:50:16;;;;;;;53.73;34.03;;;;;;;4.64;94.26;100536.81;5053971;28;20684;-67
2023/01/03 01:52:48;;;;;;;52.03;32.33;;;;;;;4.62;94.27;100530.84;5054029;28;20184;-66
2023/01/03 01:55:18;;;;;;;50.73;30.67;;;;;;;4.54;95.04;100527.25;5054330;28;20188;-66
2023/01/03 01:57:46;;;;;;;50.40;30.37;;;;;;;4.52;95.54;100526.53;5054327;28;20286;-67
2023/01/03 02:00:15;;;;;;;48.93;31.27;;;;;;;4.56;95.24;100523.50;5053399;28;20200;-67
2023/01/03 02:02:42;;;;;;;59.97;32.00;;;;;;;4.60;94.97;100526.69;5054000;28;20254;-68
2023/01/03 02:05:09;;;;;;;55.27;30.73;;;;;;;4.52;94.58;100521.25;5054163;28;20193;-68
2023/01/03 02:07:37;;;;;;;52.63;30.50;;;;;;;4.46;94.19;100517.34;5053934;28;20246;-68
2023/01/03 02:10:06;;;;;;;50.13;30.87;;;;;;;4.37;95.28;100528.66;5053880;28;20202;-68
2023/01/03 02:15:43;;;;;;;55.17;32.07;;;;;;;4.33;98.01;100522.00;5052802;28;20184;-68
2023/01/03 02:18:20;;;;;;;54.43;31.33;;;;;;;4.40;97.97;100517.91;5033521;28;20577;-68
2023/01/03 02:21:25;;;;;;;47.47;29.53;;;;;;;4.47;96.57;100513.78;5033876;28;20185;-68
2023/01/03 02:24:24;;;;;;;45.20;29.60;;;;;;;4.47;96.80;100519.03;5031834;28;20229;-68
2023/01/03 02:26:58;;;;;;;47.47;29.20;;;;;;;4.47;95.62;100516.41;5032332;28;20200;-68
2023/01/03 02:30:02;;;;;;;51.50;28.77;;;;;;;4.43;95.28;100512.38;5035731;28;20242;-68
2023/01/03 02:32:38;;;;;;;41.33;28.90;;;;;;;4.36;95.85;100511.22;5050399;28;20258;-68
2023/01/03 02:35:13;;;;;;;49.50;29.17;;;;;;;4.36;95.77;100505.97;5053102;28;20926;-68
2023/01/03 02:37:46;;;;;;;47.70;29.80;;;;;;;4.44;95.92;100511.41;5052718;28;20273;-68
2023/01/03 02:40:21;;;;;;;47.30;29.50;;;;;;;4.50;94.41;100505.59;5053466;28;20259;-69
2023/01/03 02:43:00;;;;;;;50.17;30.63;;;;;;;4.49;93.60;100506.56;5053886;28;20206;-68
2023/01/03 02:45:47;;;;;;;50.10;31.77;;;;;;;4.52;94.03;100510.72;5053193;28;20276;-68
2023/01/03 02:48:22;;;;;;;59.83;33.70;;;;;;;4.54;94.55;100511.44;5054770;28;20197;-68
2023/01/03 02:50:52;;;;;;;55.40;33.93;;;;;;;4.54;94.40;100512.25;5053403;28;20243;-68
2023/01/03 02:53:25;;;;;;;70.20;35.77;;;;;;;4.52;93.67;100511.56;5052576;28;20258;-68
2023/01/03 02:55:55;;;;;;;54.63;34.03;;;;;;;4.53;93.95;100507.97;5053217;28;20189;-68
2023/01/03 02:58:25;;;;;;;57.13;31.63;;;;;;;4.48;93.55;100507.53;5053796;28;20212;-68
2023/01/03 03:00:55;;;;;;;47.13;29.10;;;;;;;4.43;94.92;100507.13;5052810;28;20200;-69
2023/01/03 03:03:28;;;;;;;46.90;28.40;;;;;;;4.44;95.28;100510.56;5052926;28;20193;-69
2023/01/03 03:06:03;;;;;;;47.87;29.30;;;;;;;4.43;95.21;100515.00;5053067;28;20189;-68
2023/01/03 03:08:29;;;;;;;48.03;30.73;;;;;;;4.42;94.12;100513.31;5053054;28;20192;-69
2023/01/03 03:13:46;;;;;;;42.30;27.90;;;;;;;4.42;94.76;100500.16;5053155;28;20187;-68
2023/01/03 03:16:46;;;;;;;45.37;29.33;;;;;;;4.46;93.28;100509.47;5052843;28;20438;-68
2023/01/03 03:24:59;;;;;;;40.17;26.13;;;;;;;4.30;93.25;100490.69;5052585;28;20407;-68
2023/01/03 03:30:16;;;;;;;45.80;28.07;;;;;;;4.40;93.87;100498.66;5048092;28;20195;-68
2023/01/03 03:32:46;;;;;;;48.53;29.70;;;;;;;4.41;93.99;100509.03;5052362;28;20203;-68
2023/01/03 03:35:17;;;;;;;44.80;28.57;;;;;;;4.39;93.94;100499.63;5052152;28;20573;-67
2023/01/03 03:37:46;;;;;;;44.53;28.57;;;;;;;4.34;93.09;100499.19;5052707;28;20209;-67
2023/01/03 03:45:55;;;;;;;43.53;28.00;;;;;;;4.27;93.35;100506.78;5051113;28;20426;-67
2023/01/03 03:48:28;;;;;;;46.00;28.13;;;;;;;4.32;93.86;100499.31;5052706;28;20287;-68
2023/01/03 03:51:03;;;;;;;53.03;30.33;;;;;;;4.33;93.01;100505.41;5051766;28;20191;-67
2023/01/03 03:53:34;;;;;;;40.93;27.27;;;;;;;4.29;92.47;100506.66;5051840;28;20202;-67
2023/01/03 03:56:06;;;;;;;47.13;28.87;;;;;;;4.29;92.56;100510.09;5051708;28;20181;-66
2023/01/03 03:58:38;;;;;;;44.33;27.57;;;;;;;4.24;93.33;100495.66;5052545;28;20204;-67
2023/01/03 04:01:07;;;;;;;47.47;26.70;;;;;;;4.22;93.58;100508.13;5052493;28;20245;-67
2023/01/03 04:03:36;;;;;;;45.00;28.43;;;;;;;4.18;93.98;100511.97;5051686;28;20652;-68
2023/01/03 04:06:09;;;;;;;48.07;28.10;;;;;;;4.13;93.74;100491.31;5054204;28;21012;-67
2023/01/03 04:08:36;;;;;;;45.93;27.63;;;;;;;4.19;93.57;100503.97;5055113;28;20962;-68
2023/01/03 04:11:05;;;;;;;43.80;28.37;;;;;;;4.15;93.99;100489.41;5055658;28;20246;-68
2023/01/03 04:13:32;;;;;;;49.37;28.57;;;;;;;4.06;92.83;100490.19;5054859;28;20674;-68
2023/01/03 04:15:58;;;;;;;42.47;27.97;;;;;;;4.01;94.39;100495.00;5055822;28;20450;-68
2023/01/03 04:18:25;;;;;;;47.17;28.27;;;;;;;4.05;94.25;100496.41;5055521;28;20224;-68
2023/01/03 04:20:52;;;;;;;42.27;27.60;;;;;;;3.92;93.63;100500.22;5056131;28;20203;-68
2023/01/03 04:23:20;;;;;;;49.57;28.63;;;;;;;3.82;93.35;100499.31;5055172;28;20228;-68
2023/01/03 04:25:49;;;;;;;49.47;26.30;;;;;;;3.79;92.93;100495.16;5055678;28;20188;-68
2023/01/03 04:28:16;;;;;;;42.13;26.23;;;;;;;3.78;94.33;100504.00;5055383;28;20884;-68
2023/01/03 04:30:43;;;;;;;39.30;25.23;;;;;;;3.81;93.81;100498.50;5041826;28;20255;-68
2023/01/03 04:33:10;;;;;;;42.80;25.70;;;;;;;3.86;93.59;100500.72;5035320;28;21022;-68
2023/01/03 04:35:37;;;;;;;40.13;26.03;;;;;;;3.87;93.64;100497.97;5035661;28;20505;-69
2023/01/03 04:38:04;;;;;;;45.17;26.93;;;;;;;3.89;93.37;100501.28;5034940;28;20713;-66
2023/01/03 04:40:34;;;;;;;46.00;28.83;;;;;;;3.84;94.78;100506.09;5035567;28;20443;-67
2023/01/03 04:45:44;;;;;;;46.90;26.60;;;;;;;3.93;93.05;100507.94;5050746;28;20202;-66
2023/01/03 04:48:11;;;;;;;44.23;24.50;;;;;;;3.96;92.69;100507.69;5055149;28;20942;-67
2023/01/03 04:50:38;;;;;;;42.60;26.50;;;;;;;3.95;91.86;100511.28;5055118;28;20664;-66
2023/01/03 04:53:04;;;;;;;36.77;25.80;;;;;;;3.94;92.55;100509.63;5055158;28;20504;-67
2023/01/03 04:55:32;;;;;;;42.57;25.30;;;;;;;3.96;92.30;100518.22;5055598;28;20196;-67
2023/01/03 04:57:59;;;;;;;42.57;26.30;;;;;;;3.95;91.93;100516.56;5054966;28;20192;-67
2023/01/03 05:00:26;;;;;;;45.23;25.07;;;;;;;3.87;93.32;100513.72;5053938;28;20208;-66
2023/01/03 05:02:52;;;;;;;32.93;22.70;;;;;;;3.87;93.69;100513.72;5052569;28;20500;-67
2023/01/03 05:05:19;;;;;;;34.13;24.30;;;;;;;3.86;94.23;100514.69;5038635;28;20501;-65
2023/01/03 05:07:46;;;;;;;45.47;25.57;;;;;;;3.89;93.46;100517.06;5043859;28;20730;-66
2023/01/03 05:10:12;;;;;;;39.93;24.20;;;;;;;3.91;93.60;100525.66;5045373;28;20619;-67
2023/01/03 05:12:40;;;;;;;42.90;24.83;;;;;;;3.90;92.70;100528.41;5044100;28;20247;-66
2023/01/03 05:15:08;;;;;;;52.77;26.70;;;;;;;3.88;93.94;100536.41;5043882;28;20193;-66
2023/01/03 05:17:35;;;;;;;48.70;24.00;;;;;;;3.90;94.37;100529.25;5043110;28;20440;-66
2023/01/03 05:28:15;;;;;;;38.73;25.83;;;;;;;3.97;93.25;100529.56;5045803;28;20196;-66
2023/01/03 05:30:42;;;;;;;51.47;27.67;;;;;;;3.94;92.70;100530.66;5047372;28;20189;-66
2023/01/03 05:33:08;;;;;;;43.27;28.23;;;;;;;3.92;92.94;100524.69;5041812;28;20216;-66
2023/01/03 05:35:35;;;;;;;56.40;34.30;;;;;;;3.99;92.60;100544.25;5044445;28;20211;-65
2023/01/03 05:38:02;;;;;;;77.43;41.70;;;;;;;3.87;92.46;100529.50;5044721;28;20508;-67
2023/01/03 05:40:28;;;;;;;91.70;43.17;;;;;;;3.89;92.86;100538.06;5045496;28;20196;-68
2023/01/03 05:42:55;;;;;;;60.80;39.40;;;;;;;3.86;93.11;100542.75;5044349;28;20515;-66
2023/01/03 05:45:26;;;;;;;63.53;36.73;;;;;;;3.87;92.27;100539.16;5046359;28;20958;-65
2023/01/03 05:47:52;;;;;;;61.37;34.33;;;;;;;3.88;92.66;100552.19;5045389;28;20428;-66
2023/01/03 05:50:19;;;;;;;58.30;34.47;;;;;;;3.90;93.02;100545.03;5042088;28;20216;-68
2023/01/03 05:52:47;;;;;;;59.50;37.40;;;;;;;3.87;93.50;100545.28;5052741;28;20438;-66
2023/01/03 05:55:14;;;;;;;58.73;35.87;;;;;;;3.86;93.20;100550.66;5053584;28;21125;-67
2023/01/03 05:57:41;;;;;;;57.33;33.43;;;;;;;3.81;93.20;100540.53;5052545;28;20443;-66
2023/01/03 06:00:09;;;;;;;66.03;33.10;;;;;;;3.67;93.41;100547.88;5053818;28;20536;-67
2023/01/03 06:02:37;;;;;;;54.97;32.47;;;;;;;3.56;93.23;100550.56;5053794;28;20627;-67
2023/01/03 06:05:04;;;;;;;57.33;34.40;;;;;;;3.60;93.40;100554.59;5053486;28;20496;-67
2023/01/03 06:07:32;;;;;;;127.67;69.43;;;;;;;3.64;93.58;100558.66;5053932;28;20443;-67
2023/01/03 06:09:59;;;;;;;118.90;64.53;;;;;;;3.61;93.76;100553.63;5053339;28;20211;-66
2023/01/03 06:12:26;;;;;;;109.23;61.57;;;;;;;3.67;94.33;100553.13;5053201;28;20465;-66
2023/01/03 06:14:53;;;;;;;91.67;52.10;;;;;;;3.74;94.28;100556.91;5053239;28;20561;-67
2023/01/03 06:20:06;;;;;;;69.23;38.33;;;;;;;3.68;94.22;100550.38;5050882;28;20466;-67
2023/01/03 06:22:33;;;;;;;62.67;37.23;;;;;;;3.77;94.24;100560.16;5051075;28;20882;-67
2023/01/03 06:25:00;;;;;;;59.70;34.80;;;;;;;3.79;95.09;100541.59;5052644;28;20188;-67
2023/01/03 06:27:26;;;;;;;53.13;34.83;;;;;;;3.90;94.77;100558.16;5052635;28;20192;-68
2023/01/03 06:29:53;;;;;;;67.37;43.23;;;;;;;3.93;95.27;100554.44;5052972;28;20820;-67
2023/01/03 06:32:20;;;;;;;70.33;42.87;;;;;;;4.07;95.75;100554.94;5053351;28;20439;-68
2023/01/03 06:34:46;;;;;;;70.70;44.23;;;;;;;4.28;96.31;100560.19;5053491;28;20262;-68
2023/01/03 06:37:15;;;;;;;74.13;41.07;;;;;;;4.33;94.46;100556.19;5053529;28;20189;-68
2023/01/03 06:39:41;;;;;;;69.97;42.43;;;;;;;4.55;93.05;100560.47;5053799;28;20220;-67
2023/01/03 06:53:12;;;;;;;72.23;41.97;;;;;;;5.52;89.10;100570.13;5055608;28;20232;-67
2023/01/03 06:55:39;;;;;;;78.03;42.77;;;;;;;5.89;88.39;100569.47;5052968;28;20192;-67
2023/01/03 06:58:05;;;;;;;130.93;64.23;;;;;;;6.21;84.28;100577.91;5052654;28;20725;-67
2023/01/03 07:00:33;;;;;;;150.60;72.83;;;;;;;6.39;82.85;100573.53;5052635;28;20264;-67
2023/01/03 07:03:00;;;;;;;125.23;65.30;;;;;;;6.44;82.41;100572.16;5052488;28;20193;-67
2023/01/03 07:05:26;;;;;;;83.53;45.30;;;;;;;6.54;81.93;100578.25;5052576;28;20737;-67
2023/01/03 07:07:53;;;;;;;78.40;44.73;;;;;;;6.53;84.12;100557.28;5053189;28;20193;-66
2023/01/03 07:10:21;;;;;;;73.97;43.63;;;;;;;6.83;83.06;100580.75;5052443;28;20202;-67
2023/01/03 07:15:32;;;;;;;65.50;38.50;;;;;;;7.69;80.42;100573.13;5041855;28;20721;-66
2023/01/03 07:17:58;;;;;;;71.03;43.07;;;;;;;8.02;79.29;100585.66;5033247;28;20205;-66
2023/01/03 07:20:25;;;;;;;64.43;39.57;;;;;;;8.40;77.17;100590.59;5032407;28;20287;-67
2023/01/03 07:22:52;;;;;;;71.73;43.60;;;;;;;8.70;75.33;100587.50;5032525;28;20283;-67
2023/01/03 07:25:19;;;;;;;72.83;46.27;;;;;;;9.02;73.75;100592.94;5032475;28;20266;-67
2023/01/03 07:27:54;;;;;;;70.47;41.70;;;;;;;9.20;72.95;100596.34;5068606;28;20673;-67
2023/01/03 07:30:20;;;;;;;88.23;48.13;;;;;;;9.42;71.46;100601.88;5061396;28;20192;-67
2023/01/03 07:32:47;;;;;;;71.90;47.07;;;;;;;9.74;71.88;100598.47;5052291;28;20635;-66
2023/01/03 07:35:14;;;;;;;66.63;39.17;;;;;;;10.06;70.15;100603.84;5052344;28;20200;-66
2023/01/03 07:37:40;;;;;;;65.40;40.50;;;;;;;10.34;68.49;100613.94;5052330;28;20188;-67
2023/01/03 07:40:08;;;;;;;78.20;40.80;;;;;;;10.49;68.01;100614.09;5052055;28;20215;-66
2023/01/03 07:45:21;;;;;;;82.57;39.17;;;;;;;10.91;68.15;100610.16;5051263;28;20618;-66
2023/01/03 07:47:47;;;;;;;69.07;34.37;;;;;;;11.06;69.49;100597.00;5051423;28;20188;-67
2023/01/03 07:50:14;;;;;;;76.13;37.97;;;;;;;11.45;67.74;100603.16;5052103;28;20200;-66
2023/01/03 07:52:41;;;;;;;63.03;34.87;;;;;;;11.85;70.82;100594.09;5050896;28;20192;-63
2023/01/03 07:55:08;;;;;;;66.60;35.20;;;;;;;12.11;70.55;100590.06;5051761;28;20616;-65
2023/01/03 07:57:35;;;;;;;64.47;36.90;;;;;;;12.20;63.52;100618.28;5052058;28;20193;-66
2023/01/03 08:00:02;;;;;;;50.23;31.90;;;;;;;12.25;64.79;100615.91;5051609;28;20217;-65
2023/01/03 08:02:30;;;;;;;44.70;31.43;;;;;;;12.28;64.46;100607.56;5052019;28;20194;-65
2023/01/03 08:04:56;;;;;;;43.17;26.93;;;;;;;12.34;63.88;100604.22;5051933;28;20194;-65
2023/01/03 08:07:23;;;;;;;41.23;25.67;;;;;;;12.23;65.01;100599.31;5051731;28;20255;-65
2023/01/03 08:15:18;;;;;;;40.60;27.90;;;;;;;12.54;66.15;100586.66;5051515;28;20685;-66
2023/01/03 08:17:46;;;;;;;50.17;28.67;;;;;;;12.83;63.14;100596.53;5051075;28;20195;-65
2023/01/03 08:20:12;;;;;;;53.17;31.13;;;;;;;13.16;62.69;100598.69;5050155;28;20214;-64
2023/01/03 08:22:39;;;;;;;43.03;29.07;;;;;;;13.42;61.04;100600.84;5050188;28;20669;-66
2023/01/03 08:25:06;;;;;;;51.37;30.93;;;;;;;13.64;60.44;100592.69;5050668;28;20200;-67
2023/01/03 08:27:33;;;;;;;57.93;36.23;;;;;;;13.85;59.91;100592.69;5064750;28;20725;-64
2023/01/03 08:29:59;;;;;;;72.37;47.53;;;;;;;14.12;59.98;100591.94;5064269;28;20255;-66
2023/01/03 08:32:27;;;;;;;61.87;34.17;;;;;;;14.27;58.80;100573.19;5051048;28;20197;-67
2023/01/03 08:34:55;;;;;;;52.10;33.27;;;;;;;14.43;58.41;100584.44;5050946;28;20189;-67
2023/01/03 08:37:22;;;;;;;57.93;33.67;;;;;;;14.55;58.16;100572.16;5050927;28;20189;-66
2023/01/03 08:39:52;;;;;;;53.83;31.83;;;;;;;14.75;58.44;100562.41;5051144;28;20216;-67
2023/01/03 08:42:22;;;;;;;41.80;27.40;;;;;;;14.89;57.80;100564.16;5051394;28;20265;-67
2023/01/03 08:44:53;;;;;;;39.40;26.60;;;;;;;14.98;57.43;100562.97;5050554;28;20200;-66
2023/01/03 08:47:20;;;;;;;50.00;28.73;;;;;;;15.18;56.87;100558.53;5049547;28;20651;-64
2023/01/03 08:49:47;;;;;;;43.43;25.17;;;;;;;15.35;55.43;100556.34;5049790;28;20204;-67
2023/01/03 08:52:15;;;;;;;42.23;25.23;;;;;;;15.58;55.55;100546.97;5051776;28;20201;-67
2023/01/03 08:54:42;;;;;;;51.33;27.40;;;;;;;15.80;54.72;100551.13;5053627;28;20193;-65
2023/01/03 08:57:09;;;;;;;40.53;27.60;;;;;;;15.90;54.14;100542.69;5053898;28;20192;-67
2023/01/03 08:59:36;;;;;;;40.93;27.37;;;;;;;16.05;53.64;100556.69;5054065;28;20664;-65
2023/01/03 09:02:03;;;;;;;39.90;25.27;;;;;;;16.04;53.72;100543.53;5050041;28;20630;-66
2023/01/03 09:04:29;;;;;;;41.87;25.10;;;;;;;16.07;53.35;100543.09;5054639;28;20275;-66
2023/01/03 09:06:56;;;;;;;39.17;26.70;;;;;;;16.20;53.50;100535.06;5055294;28;20251;-66
2023/01/03 09:09:24;;;;;;;33.33;24.00;;;;;;;16.31;52.67;100534.44;5054883;28;20206;-66
2023/01/03 09:11:51;;;;;;;34.60;23.07;;;;;;;16.43;52.38;100528.28;5055544;28;20196;-65
2023/01/03 09:14:18;;;;;;;22.37;16.70;;;;;;;16.54;61.87;100502.69;5054125;28;20254;-69
2023/01/03 09:16:44;;;;;;;37.43;22.20;;;;;;;16.77;52.70;100514.56;5034427;28;20762;-67
2023/01/03 09:19:11;;;;;;;31.63;23.17;;;;;;;16.73;51.77;100518.72;5034294;28;20200;-68
2023/01/03 09:21:38;;;;;;;41.90;24.23;;;;;;;16.67;50.98;100522.25;5048460;28;20628;-65
2023/01/03 09:24:05;;;;;;;41.90;24.53;;;;;;;16.68;50.74;100517.69;5053707;28;20196;-66
2023/01/03 09:26:33;;;;;;;35.80;23.23;;;;;;;16.66;51.84;100509.03;5053967;28;20196;-67
2023/01/03 09:29:00;;;;;;;38.00;25.20;;;;;;;16.73;50.76;100512.50;5053830;28;20192;-68
2023/01/03 09:31:28;;;;;;;45.77;24.43;;;;;;;16.83;50.66;100510.22;5053533;28;20202;-68
2023/01/03 09:33:55;;;;;;;37.13;23.47;;;;;;;16.86;51.45;100496.41;5054100;28;20267;-66
2023/01/03 09:36:22;;;;;;;36.13;23.23;;;;;;;17.01;49.89;100495.09;5053662;28;20259;-66
2023/01/03 09:38:48;;;;;;;54.90;29.30;;;;;;;16.97;50.10;100485.81;5047547;28;20195;-65
2023/01/03 09:41:21;;;;;;;41.20;24.47;;;;;;;16.79;50.37;100485.69;5053888;28;20271;-65
2023/01/03 09:43:52;;;;;;;38.57;23.40;;;;;;;16.81;50.24;100472.03;5053569;28;20640;-64
2023/01/03 09:46:21;;;;;;;36.53;23.13;;;;;;;16.92;49.55;100474.06;5048205;28;20192;-66
2023/01/03 09:48:49;;;;;;;34.37;21.90;;;;;;;17.02;49.27;100471.75;5048637;28;20186;-68
2023/01/03 10:06:04;;;;;;;34.70;23.03;;;;;;;17.36;47.78;100433.75;5048051;28;20196;-66
2023/01/03 10:08:38;;;;;;;25.80;18.57;;;;;;;17.44;47.66;100444.28;5043792;28;20639;-65
2023/01/03 10:11:09;;;;;;;27.77;20.10;;;;;;;17.59;47.06;100428.66;5053216;28;20188;-67
2023/01/03 10:13:47;;;;;;;33.07;19.70;;;;;;;17.74;46.11;100437.22;5052674;28;20637;-66
2023/01/03 10:16:26;;;;;;;31.03;21.03;;;;;;;17.72;46.65;100425.88;5049963;28;20617;-66
2023/01/03 10:19:19;;;;;;;31.40;22.17;;;;;;;17.64;47.08;100428.84;5050714;28;20186;-66
2023/01/03 10:21:56;;;;;;;36.43;23.77;;;;;;;17.73;46.77;100424.84;5047050;28;20209;-66
2023/01/03 10:24:26;;;;;;;35.90;24.57;;;;;;;17.70;46.92;100414.50;5051796;28;20247;-65
2023/01/03 10:26:55;;;;;;;37.40;25.63;;;;;;;17.66;46.99;100413.31;5046800;28;20198;-66
2023/01/03 10:29:22;;;;;;;39.97;25.83;;;;;;;17.67;46.74;100410.41;5052931;28;20244;-66
2023/01/03 10:32:10;;;;;;;45.87;25.70;;;;;;;17.57;47.46;100404.72;5053179;28;20185;-66
2023/01/03 10:34:38;;;;;;;46.63;27.13;;;;;;;17.36;47.95;100404.22;5049575;28;20180;-69
2023/01/03 10:37:16;;;;;;;43.83;27.10;;;;;;;17.33;48.47;100396.59;5053256;28;20276;-65
2023/01/03 10:39:43;;;;;;;45.60;27.13;;;;;;;17.22;48.21;100378.47;5047503;28;20208;-67
2023/01/03 10:42:17;;;;;;;45.67;26.57;;;;;;;17.25;48.49;100388.78;5050146;28;20188;-67
2023/01/03 10:44:57;;;;;;;40.40;25.20;;;;;;;17.19;47.88;100374.38;5047299;28;20265;-67
2023/01/03 10:47:25;;;;;;;40.73;23.70;;;;;;;17.34;49.01;100377.56;5046512;28;20236;-69
2023/01/03 10:49:59;;;;;;;39.70;22.50;;;;;;;17.31;47.79;100382.56;5051311;28;20284;-68
2023/01/03 10:52:31;;;;;;;44.07;23.00;;;;;;;17.37;46.92;100361.03;5051587;28;20576;-69
2023/01/03 10:55:02;;;;;;;38.90;22.97;;;;;;;17.54;46.85;100366.69;5048823;28;20208;-69
2023/01/03 10:57:38;;;;;;;36.17;23.47;;;;;;;17.52;46.46;100341.94;5049728;28;20617;-69
2023/01/03 11:00:25;;;;;;;1308.30;687.50;;;;;;;17.80;57.61;100345.78;5052657;28;20218;-67
2023/01/03 11:02:54;;;;;;;997.63;638.30;;;;;;;17.93;59.89;100328.72;5047525;28;20229;-67
2023/01/03 11:05:23;;;;;;;156.97;76.80;;;;;;;18.38;54.22;100338.16;5051743;28;20203;-66
2023/01/03 11:07:54;;;;;;;98.97;47.87;;;;;;;18.74;54.65;100343.47;5052511;28;20666;-66
2023/01/03 11:10:22;;;;;;;109.87;53.03;;;;;;;18.99;53.06;100338.75;5052615;28;20200;-67
2023/01/03 11:12:50;;;;;;;39.30;25.20;;;;;;;19.15;44.07;100351.56;5051106;28;20193;-65
2023/01/03 11:15:18;;;;;;;36.93;23.17;;;;;;;19.16;43.98;100342.44;5051876;28;20196;-66
2023/01/03 11:17:57;;;;;;;34.73;23.17;;;;;;;19.02;43.97;100340.97;5051608;28;20242;-67
2023/01/03 11:20:39;;;;;;;36.07;23.57;;;;;;;18.89;43.88;100338.47;5051396;28;20270;-67
2023/01/03 11:23:15;;;;;;;32.87;22.37;;;;;;;18.75;43.96;100332.44;5051391;28;20224;-66
2023/01/03 11:25:55;;;;;;;37.00;22.27;;;;;;;18.67;43.58;100323.88;5052332;28;20260;-65
2023/01/03 11:28:44;;;;;;;45.97;23.03;;;;;;;18.65;44.17;100309.81;5051831;28;20236;-66
2023/01/03 11:31:20;;;;;;;33.73;21.43;;;;;;;18.70;44.59;100316.16;5048110;28;20693;-66
2023/01/03 11:34:03;;;;;;;32.57;21.97;;;;;;;18.60;44.09;100315.91;5046998;28;20178;-67
2023/01/03 11:36:38;;;;;;;35.70;21.83;;;;;;;18.42;43.99;100313.25;5052386;28;20199;-65
2023/01/03 11:39:19;;;;;;;32.53;21.33;;;;;;;18.40;44.04;100314.50;5050030;28;20231;-68
2023/01/03 11:42:05;;;;;;;64.93;23.67;;;;;;;18.40;44.50;100296.50;5039412;28;20241;-67
2023/01/03 11:45:03;;;;;;;38.67;22.63;;;;;;;18.01;44.72;100293.47;5030604;28;20243;-67
2023/01/03 11:47:40;;;;;;;103.20;25.33;;;;;;;17.97;45.77;100286.88;5044514;28;20271;-65
2023/01/03 11:50:25;;;;;;;35.67;20.87;;;;;;;17.99;45.00;100287.47;5049085;28;20243;-66
2023/01/03 11:52:59;;;;;;;46.63;21.07;;;;;;;18.04;45.22;100276.84;5033182;28;20241;-64
2023/01/03 11:55:51;;;;;;;39.17;21.00;;;;;;;18.01;44.90;100277.31;5048295;28;20243;-65
2023/01/03 11:58:45;;;;;;;43.53;21.60;;;;;;;17.97;45.19;100270.75;5052013;28;20258;-65
2023/01/03 12:01:26;;;;;;;38.80;21.90;;;;;;;18.06;45.03;100270.25;5046808;28;20722;-65
2023/01/03 12:04:08;;;;;;;37.77;20.73;;;;;;;18.11;44.60;100265.00;5040795;28;20207;-65
2023/01/03 12:06:41;;;;;;;38.97;21.67;;;;;;;18.09;44.12;100268.97;5033132;28;20193;-64
2023/01/03 12:09:18;;;;;;;44.50;20.83;;;;;;;17.98;45.14;100261.63;5051883;28;20188;-63
2023/01/03 12:12:06;;;;;;;35.80;21.37;;;;;;;17.87;44.67;100259.69;5052450;28;20249;-64
2023/01/03 12:14:38;;;;;;;164.90;67.70;;;;;;;17.89;45.09;100252.25;5052051;28;20609;-65
2023/01/03 12:17:11;;;;;;;48.60;28.40;;;;;;;17.87;44.89;100257.00;5051888;28;20258;-64
2023/01/03 12:19:43;;;;;;;37.90;24.20;;;;;;;17.86;44.89;100252.69;5050343;28;20180;-65
2023/01/03 12:22:19;;;;;;;34.30;21.43;;;;;;;17.89;45.24;100241.50;5057575;28;20301;-66
2023/01/03 12:24:51;;;;;;;30.30;21.37;;;;;;;17.93;45.21;100242.69;5043255;28;20201;-67
2023/01/03 12:27:27;;;;;;;30.37;21.00;;;;;;;18.03;45.39;100248.34;5048769;28;20176;-66
2023/01/03 12:30:02;;;;;;;35.53;20.57;;;;;;;18.11;45.24;100250.72;5049041;28;20191;-65
2023/01/03 12:32:34;;;;;;;31.90;20.10;;;;;;;18.04;44.22;100247.28;5048344;28;20629;-65
2023/01/03 12:35:24;;;;;;;42.70;19.90;;;;;;;18.04;44.22;100240.03;5044884;28;20185;-66
2023/01/03 12:37:53;;;;;;;31.33;20.17;;;;;;;18.06;44.47;100237.97;5044489;28;21740;-66
2023/01/03 12:40:26;;;;;;;40.13;20.77;;;;;;;18.08;44.80;100235.88;5042594;28;20220;-66
2023/01/03 12:43:00;;;;;;;38.87;20.13;;;;;;;18.08;44.45;100235.03;5045267;28;20190;-67